Time;durP1;ratioP1;P1;durP2;ratioP2;P2;SDS_P1;SDS_P2;PMS_P1;PMS_P2;Temp;Humidity;BMP_temperature;BMP_pressure;BME280_temperature;BME280_humidity;BME280_pressure;Samples;Min_cycle;Max_cycle;Signal;HPM_P1;HPM_P2
2022/11/05 00:10:19;;;;;;;5.95;3.90;;;10.60;99.90;;;;;;4127487;28;20038;-61
2022/11/05 00:16:58;;;;;;;10.93;4.53;;;10.60;99.90;;;;;;4129944;28;20105;-60
2022/11/05 00:19:05;;;;;;;10.50;4.63;;;10.60;99.90;;;;;;4128714;28;20069;-60
2022/11/05 00:25:12;;;;;;;5.75;3.83;;;10.60;99.90;;;;;;4126568;28;20405;-60
2022/11/05 00:26:00;;;;;;;5.82;4.03;;;10.60;99.90;;;;;;4129885;28;20450;-62
2022/11/05 00:28:02;;;;;;;4.13;3.35;;;10.60;99.90;;;;;;4130872;28;20481;-60
2022/11/05 00:30:03;;;;;;;8.77;3.78;;;10.60;99.90;;;;;;4129631;28;20126;-61
2022/11/05 00:32:03;;;;;;;5.97;3.95;;;10.60;99.90;;;;;;4127965;28;20038;-61
2022/11/05 00:34:04;;;;;;;5.40;3.88;;;10.50;99.90;;;;;;4130901;28;20498;-60
2022/11/05 00:36:07;;;;;;;5.88;4.15;;;10.50;99.90;;;;;;4130219;28;20042;-60
2022/11/05 00:38:07;;;;;;;7.10;4.03;;;10.50;99.90;;;;;;4130498;28;20488;-60
2022/11/05 00:40:09;;;;;;;7.25;4.22;;;10.50;99.90;;;;;;4127998;28;20038;-61
2022/11/05 00:46:48;;;;;;;8.82;4.13;;;10.50;99.90;;;;;;4129685;28;20077;-60
2022/11/05 00:51:08;;;;;;;4.80;3.90;;;10.50;99.90;;;;;;4126957;28;20393;-60
2022/11/05 00:53:09;;;;;;;7.53;4.40;;;10.50;99.90;;;;;;4130338;28;20037;-60
2022/11/05 00:55:09;;;;;;;5.15;3.80;;;10.50;99.90;;;;;;4129971;28;20037;-62
2022/11/05 00:57:10;;;;;;;6.38;3.78;;;10.50;99.90;;;;;;4130318;28;20033;-60
2022/11/05 00:59:10;;;;;;;4.80;3.28;;;10.40;99.90;;;;;;4128649;28;20053;-60
2022/11/05 01:01:11;;;;;;;7.95;4.90;;;10.40;99.90;;;;;;4126673;28;20109;-62
2022/11/05 01:03:14;;;;;;;7.38;3.88;;;10.50;99.90;;;;;;4130142;28;20045;-61
2022/11/05 01:05:15;;;;;;;4.68;3.60;;;10.50;99.90;;;;;;4128726;28;20043;-60
2022/11/05 01:07:15;;;;;;;5.20;3.85;;;10.50;99.90;;;;;;4130486;28;20520;-61
2022/11/05 01:09:16;;;;;;;4.47;3.78;;;10.50;99.90;;;;;;4127422;28;20034;-60
2022/11/05 01:11:35;;;;;;;5.32;3.95;;;10.50;99.90;;;;;;4124961;28;20035;-61
2022/11/05 01:13:37;;;;;;;7.40;3.88;;;10.40;99.90;;;;;;4126994;28;20037;-60
2022/11/05 01:15:38;;;;;;;5.00;3.80;;;10.40;99.90;;;;;;4128803;28;20022;-60
2022/11/05 01:17:38;;;;;;;8.18;4.03;;;10.40;99.90;;;;;;4130102;28;20034;-60
2022/11/05 01:19:39;;;;;;;5.40;3.55;;;10.40;99.90;;;;;;4129010;28;20046;-60
2022/11/05 01:21:40;;;;;;;6.28;4.30;;;10.40;99.90;;;;;;4126634;28;20409;-60
2022/11/05 01:23:40;;;;;;;6.70;4.10;;;10.40;99.90;;;;;;4128748;28;20037;-60
2022/11/05 01:25:42;;;;;;;7.63;4.35;;;10.30;99.90;;;;;;4129057;28;20109;-64
2022/11/05 01:27:43;;;;;;;5.35;3.95;;;10.30;99.90;;;;;;4130161;28;20378;-60
2022/11/05 01:29:43;;;;;;;6.88;4.57;;;10.30;99.90;;;;;;4129382;28;20037;-60
2022/11/05 01:31:44;;;;;;;8.10;5.15;;;10.30;99.90;;;;;;4127385;28;20489;-60
2022/11/05 01:33:45;;;;;;;9.43;5.68;;;10.30;99.90;;;;;;4129871;28;20034;-60
2022/11/05 01:35:45;;;;;;;5.38;3.90;;;10.30;99.90;;;;;;4129265;28;20240;-60
2022/11/05 01:37:46;;;;;;;7.28;4.10;;;10.30;99.90;;;;;;4130107;28;20044;-60
2022/11/05 01:39:47;;;;;;;6.78;4.30;;;10.20;99.90;;;;;;4128645;28;20031;-60
2022/11/05 01:41:47;;;;;;;7.25;4.45;;;10.20;99.90;;;;;;4125778;28;20512;-60
2022/11/05 01:43:56;;;;;;;8.45;4.57;;;10.20;99.90;;;;;;4129863;28;20545;-60
2022/11/05 01:45:57;;;;;;;7.18;4.20;;;10.20;99.90;;;;;;4128592;28;20019;-61
2022/11/05 01:48:19;;;;;;;5.82;4.15;;;10.20;99.90;;;;;;4125473;28;20034;-61
2022/11/05 01:50:26;;;;;;;6.25;4.28;;;10.20;99.90;;;;;;4125230;28;20105;-60
2022/11/05 01:52:30;;;;;;;6.15;4.25;;;10.20;99.90;;;;;;4127909;28;20447;-60
2022/11/05 01:54:31;;;;;;;6.53;4.28;;;10.20;99.90;;;;;;4129379;28;20069;-60
2022/11/05 01:56:41;;;;;;;5.88;4.13;;;10.20;99.90;;;;;;4128156;28;20030;-61
2022/11/05 01:59:05;;;;;;;6.45;4.50;;;10.20;99.90;;;;;;4128561;28;20425;-61
2022/11/05 02:01:05;;;;;;;6.72;4.28;;;10.10;99.90;;;;;;4122753;28;20055;-60
2022/11/05 02:03:06;;;;;;;7.00;4.60;;;10.10;99.90;;;;;;4123561;28;20482;-60
2022/11/05 02:05:08;;;;;;;7.47;4.13;;;10.10;99.90;;;;;;4128904;28;20077;-61
2022/11/05 02:07:10;;;;;;;6.97;4.03;;;10.00;99.90;;;;;;4129170;28;20033;-60
2022/11/05 02:09:24;;;;;;;6.95;3.55;;;10.10;99.90;;;;;;4128811;28;20038;-60
2022/11/05 02:11:24;;;;;;;7.13;4.32;;;10.10;99.90;;;;;;4124445;28;20107;-60
2022/11/05 02:13:25;;;;;;;7.00;3.92;;;10.10;99.90;;;;;;4129539;28;20034;-60
2022/11/05 02:15:39;;;;;;;5.80;3.88;;;10.10;99.90;;;;;;4128279;28;20034;-60
2022/11/05 02:17:55;;;;;;;6.95;4.25;;;10.10;99.90;;;;;;4124950;28;20441;-60
2022/11/05 02:20:09;;;;;;;6.38;3.95;;;10.10;99.90;;;;;;4127876;28;20105;-60
2022/11/05 02:22:54;;;;;;;7.32;4.57;;;10.10;99.90;;;;;;4127011;28;20030;-60
2022/11/05 02:25:01;;;;;;;5.68;3.65;;;10.10;99.90;;;;;;4128483;28;20560;-60
2022/11/05 02:27:23;;;;;;;6.03;4.00;;;10.00;99.90;;;;;;4128321;28;20034;-60
2022/11/05 02:29:37;;;;;;;6.18;3.50;;;10.00;99.90;;;;;;4123484;28;20045;-60
2022/11/05 02:31:50;;;;;;;7.18;4.22;;;10.00;99.90;;;;;;4126819;28;20042;-60
2022/11/05 02:34:13;;;;;;;6.43;4.30;;;10.00;99.90;;;;;;4125729;28;20121;-60
2022/11/05 02:36:30;;;;;;;5.53;3.88;;;10.00;99.90;;;;;;4124874;28;20030;-60
2022/11/05 02:38:44;;;;;;;5.53;3.72;;;10.00;99.90;;;;;;4127396;28;20406;-60
2022/11/05 02:41:09;;;;;;;6.65;4.18;;;10.00;99.90;;;;;;4125178;28;20030;-60
2022/11/05 02:43:34;;;;;;;6.25;3.80;;;10.00;99.90;;;;;;4127173;28;20029;-60
2022/11/05 02:45:54;;;;;;;5.45;3.90;;;10.00;99.90;;;;;;4127609;28;20034;-60
2022/11/05 02:48:17;;;;;;;5.05;3.50;;;10.00;99.90;;;;;;4125925;28;20061;-60
2022/11/05 02:50:29;;;;;;;5.97;3.75;;;10.00;99.90;;;;;;4124755;28;20444;-60
2022/11/05 02:52:56;;;;;;;6.75;3.95;;;10.00;99.90;;;;;;4128616;28;20038;-60
2022/11/05 02:55:10;;;;;;;5.68;3.70;;;10.00;99.90;;;;;;4125651;28;20084;-60
2022/11/05 02:57:10;;;;;;;5.25;3.42;;;9.90;99.90;;;;;;4127171;28;20034;-60
2022/11/05 02:59:11;;;;;;;4.38;2.92;;;10.00;99.90;;;;;;4127698;28;20517;-60
2022/11/05 03:01:12;;;;;;;5.80;3.70;;;9.90;99.90;;;;;;4126829;28;20100;-63
2022/11/05 03:03:32;;;;;;;5.70;3.55;;;9.90;99.90;;;;;;4128442;28;20512;-61
2022/11/05 03:05:43;;;;;;;4.20;2.90;;;9.90;99.90;;;;;;4119179;28;20030;-61
2022/11/05 03:07:59;;;;;;;5.93;3.38;;;9.90;99.90;;;;;;4127381;28;20034;-61
2022/11/05 03:10:09;;;;;;;5.38;3.15;;;9.90;99.90;;;;;;4126923;28;20061;-60
2022/11/05 03:12:38;;;;;;;5.25;3.20;;;9.90;99.90;;;;;;4127369;28;20401;-60
2022/11/05 03:14:56;;;;;;;6.65;3.58;;;9.90;99.90;;;;;;4126861;28;20501;-60
2022/11/05 03:17:15;;;;;;;5.20;3.45;;;9.90;99.90;;;;;;4118951;28;20035;-61
2022/11/05 03:19:36;;;;;;;5.95;3.17;;;9.90;99.90;;;;;;4126277;28;20067;-60
2022/11/05 03:21:47;;;;;;;3.78;3.17;;;9.90;99.90;;;;;;4125172;28;20057;-61
2022/11/05 03:24:23;;;;;;;5.63;3.42;;;9.90;99.90;;;;;;4124375;28;20030;-60
2022/11/05 03:26:34;;;;;;;6.50;3.35;;;9.90;99.90;;;;;;4099725;28;20524;-60
2022/11/05 03:28:40;;;;;;;5.70;3.17;;;9.80;99.90;;;;;;4122017;28;20074;-60
2022/11/05 03:30:41;;;;;;;4.85;3.45;;;9.80;99.90;;;;;;4120927;28;20041;-60
2022/11/05 03:32:47;;;;;;;4.70;3.22;;;9.80;99.90;;;;;;4131512;28;20042;-61
2022/11/05 03:34:59;;;;;;;4.78;2.85;;;9.80;99.90;;;;;;4131829;28;20378;-60
2022/11/05 03:37:02;;;;;;;7.07;3.30;;;9.80;99.90;;;;;;4128882;28;20030;-60
2022/11/05 03:39:04;;;;;;;;;;;9.80;99.90;;;;;;4131168;28;20408;-60
2022/11/05 03:41:08;;;;;;;5.97;3.03;;;9.80;99.90;;;;;;4125456;28;19916;-60
2022/11/05 03:43:11;;;;;;;4.47;2.90;;;9.80;99.90;;;;;;4130890;28;20359;-60
2022/11/05 03:45:22;;;;;;;5.25;3.55;;;9.70;99.90;;;;;;4130262;28;20544;-60
2022/11/05 03:47:34;;;;;;;6.15;2.78;;;9.70;99.90;;;;;;4131627;28;20038;-60
2022/11/05 03:49:38;;;;;;;3.90;2.57;;;9.70;99.90;;;;;;4130132;28;20030;-60
2022/11/05 03:51:45;;;;;;;4.32;2.97;;;9.60;99.90;;;;;;4129830;28;20069;-60
2022/11/05 03:53:49;;;;;;;4.43;2.60;;;9.60;99.90;;;;;;4131047;28;20493;-60
2022/11/05 03:55:57;;;;;;;3.95;2.63;;;9.60;99.90;;;;;;4126417;28;20034;-60
2022/11/05 03:57:58;;;;;;;3.10;2.47;;;9.50;99.90;;;;;;4131158;28;20038;-60
2022/11/05 03:59:59;;;;;;;3.45;2.40;;;9.50;99.90;;;;;;4130147;28;20067;-60
2022/11/05 04:02:01;;;;;;;3.47;2.75;;;9.50;99.90;;;;;;4128588;28;20042;-61
2022/11/05 04:04:04;;;;;;;3.72;2.53;;;9.40;99.90;;;;;;4131560;28;20440;-60
2022/11/05 04:13:23;;;;;;;4.68;2.70;;;9.40;99.90;;;;;;4130699;28;20034;-60
2022/11/05 04:15:23;;;;;;;4.90;2.60;;;9.30;99.90;;;;;;4129691;28;20073;-60
2022/11/05 04:17:24;;;;;;;4.80;2.95;;;9.30;99.90;;;;;;4131159;28;20034;-60
2022/11/05 04:24:09;;;;;;;5.05;3.10;;;9.30;99.90;;;;;;4130701;28;20027;-60
2022/11/05 04:26:10;;;;;;;4.60;3.00;;;9.20;99.90;;;;;;4128410;28;20413;-60
2022/11/05 04:28:11;;;;;;;5.03;3.05;;;9.20;99.90;;;;;;4130932;28;20129;-60
2022/11/05 04:30:18;;;;;;;5.32;3.40;;;9.20;99.90;;;;;;4126925;28;20046;-61
2022/11/05 04:32:19;;;;;;;3.80;2.72;;;9.20;99.90;;;;;;4130488;28;20512;-60
2022/11/05 04:34:20;;;;;;;7.85;3.50;;;9.10;99.90;;;;;;4130983;28;20046;-60
2022/11/05 04:36:21;;;;;;;7.53;3.58;;;9.20;99.90;;;;;;4129646;28;20085;-60
2022/11/05 04:38:22;;;;;;;5.28;3.38;;;9.20;99.90;;;;;;4130282;28;20393;-60
2022/11/05 04:40:22;;;;;;;4.85;3.42;;;9.10;99.90;;;;;;4125435;28;20070;-60
2022/11/05 04:42:23;;;;;;;7.60;4.00;;;9.10;99.90;;;;;;4129679;28;20043;-60
2022/11/05 04:44:23;;;;;;;5.95;4.07;;;9.10;99.90;;;;;;4130675;28;20041;-60
2022/11/05 04:46:24;;;;;;;8.15;4.25;;;9.10;99.90;;;;;;4129650;28;20046;-60
2022/11/05 04:48:24;;;;;;;8.10;4.30;;;9.00;99.90;;;;;;4130458;28;20040;-60
2022/11/05 04:50:25;;;;;;;8.65;5.25;;;9.00;99.90;;;;;;4127146;28;20046;-60
2022/11/05 04:52:26;;;;;;;6.60;4.28;;;9.00;99.90;;;;;;4130020;28;20118;-60
2022/11/05 04:54:26;;;;;;;6.43;4.50;;;9.00;99.90;;;;;;4130028;28;20034;-60
2022/11/05 04:56:27;;;;;;;7.53;4.85;;;8.90;99.90;;;;;;4126057;28;20116;-60
2022/11/05 04:58:27;;;;;;;7.03;4.57;;;8.90;99.90;;;;;;4130756;28;20117;-60
2022/11/05 05:00:28;;;;;;;7.38;4.90;;;8.90;99.90;;;;;;4128063;28;20046;-60
2022/11/05 05:02:28;;;;;;;7.00;4.60;;;8.90;99.90;;;;;;4129269;28;20049;-60
2022/11/05 05:04:29;;;;;;;8.55;5.38;;;8.90;99.90;;;;;;4129686;28;20027;-60
2022/11/05 05:06:30;;;;;;;7.63;5.22;;;8.90;99.90;;;;;;4112436;28;20085;-60
2022/11/05 05:08:30;;;;;;;8.90;5.57;;;8.90;99.90;;;;;;4129038;28;20041;-60
2022/11/05 05:10:31;;;;;;;8.68;5.63;;;8.80;99.90;;;;;;4126035;28;20046;-63
2022/11/05 05:12:33;;;;;;;10.63;6.15;;;8.80;99.90;;;;;;4129888;28;20042;-60
2022/11/05 05:14:34;;;;;;;10.82;5.82;;;8.90;99.90;;;;;;4129885;28;20030;-61
2022/11/05 05:16:34;;;;;;;7.95;5.22;;;8.90;99.90;;;;;;4129488;28;20084;-60
2022/11/05 05:18:35;;;;;;;9.95;6.10;;;8.80;99.90;;;;;;4129481;28;20613;-60
2022/11/05 05:22:55;;;;;;;7.50;5.22;;;8.70;99.90;;;;;;4129583;28;20030;-60
2022/11/05 05:24:56;;;;;;;8.57;5.43;;;8.80;99.90;;;;;;4129829;28;20088;-60
2022/11/05 05:26:56;;;;;;;8.23;5.70;;;8.80;99.90;;;;;;4127731;28;20033;-60
2022/11/05 05:28:57;;;;;;;9.05;5.60;;;8.80;99.90;;;;;;4127534;28;20042;-60
2022/11/05 05:30:59;;;;;;;7.60;5.70;;;8.80;99.90;;;;;;4127284;28;20030;-60
2022/11/05 05:33:03;;;;;;;8.73;6.10;;;8.80;99.90;;;;;;4129975;28;20038;-60
2022/11/05 05:35:04;;;;;;;14.32;6.43;;;8.80;99.90;;;;;;4129539;28;20065;-61
2022/11/05 05:37:05;;;;;;;10.88;5.68;;;8.80;99.90;;;;;;4128332;28;20473;-61
2022/11/05 05:39:09;;;;;;;9.27;5.93;;;8.80;99.90;;;;;;4127953;28;20034;-60
2022/11/05 05:41:10;;;;;;;9.98;5.82;;;8.90;99.90;;;;;;4127886;28;20030;-61
2022/11/05 05:43:10;;;;;;;9.95;5.82;;;8.80;99.90;;;;;;4129429;28;20041;-60
2022/11/05 05:45:11;;;;;;;10.73;5.53;;;8.90;99.90;;;;;;4126339;28;20034;-60
2022/11/05 05:47:13;;;;;;;9.43;5.55;;;8.80;99.90;;;;;;4129687;28;20106;-60
2022/11/05 05:49:13;;;;;;;10.20;6.85;;;8.90;99.90;;;;;;4142919;28;20048;-60
2022/11/05 05:51:14;;;;;;;7.93;5.40;;;8.90;99.90;;;;;;4126386;28;20030;-61
2022/11/05 05:53:15;;;;;;;10.75;6.20;;;8.90;99.90;;;;;;4129026;28;20042;-61
2022/11/05 05:55:15;;;;;;;10.95;6.03;;;8.80;99.90;;;;;;4125414;28;20046;-60
2022/11/05 05:57:16;;;;;;;11.38;7.28;;;8.90;99.90;;;;;;4128451;28;20524;-60
2022/11/05 05:59:16;;;;;;;10.10;6.65;;;8.80;99.90;;;;;;4128821;28;20128;-61
2022/11/05 06:01:17;;;;;;;10.23;6.28;;;8.80;99.90;;;;;;4127111;28;20046;-61
2022/11/05 06:03:18;;;;;;;9.38;6.53;;;8.80;99.90;;;;;;4128659;28;20096;-60
2022/11/05 06:05:19;;;;;;;11.10;7.03;;;8.80;99.90;;;;;;4127809;28;20464;-61
2022/11/05 06:07:19;;;;;;;9.48;6.68;;;8.80;99.90;;;;;;4129513;28;20445;-60
2022/11/05 06:09:20;;;;;;;10.10;6.70;;;8.80;99.90;;;;;;4127057;28;20057;-60
2022/11/05 06:11:21;;;;;;;13.00;7.85;;;8.80;99.90;;;;;;4141114;28;20108;-60
2022/11/05 06:13:22;;;;;;;10.32;6.85;;;8.80;99.90;;;;;;4129301;28;20050;-60
2022/11/05 06:15:23;;;;;;;10.65;7.20;;;8.80;99.90;;;;;;4127686;28;20042;-60
2022/11/05 06:17:23;;;;;;;11.20;7.43;;;8.70;99.90;;;;;;4127408;28;20034;-60
2022/11/05 06:19:24;;;;;;;12.23;7.40;;;8.80;99.90;;;;;;4127312;28;20041;-60
2022/11/05 06:21:24;;;;;;;13.95;7.60;;;8.70;99.90;;;;;;4124407;28;20034;-60
2022/11/05 06:23:25;;;;;;;11.30;7.45;;;8.70;99.90;;;;;;4122967;28;20034;-60
2022/11/05 06:25:25;;;;;;;11.18;6.97;;;8.70;99.90;;;;;;4119236;28;20042;-60
2022/11/05 06:27:27;;;;;;;11.52;6.75;;;8.80;99.90;;;;;;4126442;28;20038;-60
2022/11/05 06:29:28;;;;;;;12.07;7.23;;;8.70;99.90;;;;;;4126525;28;20034;-60
2022/11/05 06:31:28;;;;;;;11.48;7.32;;;8.70;99.90;;;;;;4123399;28;20284;-60
2022/11/05 06:33:29;;;;;;;10.82;7.38;;;8.70;99.90;;;;;;4127160;28;20110;-60
2022/11/05 06:35:30;;;;;;;12.75;7.60;;;8.70;99.90;;;;;;4125178;28;20088;-61
2022/11/05 06:37:34;;;;;;;11.65;7.43;;;8.80;99.90;;;;;;4128562;28;20038;-60
2022/11/05 06:39:35;;;;;;;14.70;7.88;;;8.70;99.90;;;;;;4125941;28;20042;-60
2022/11/05 06:41:35;;;;;;;10.15;6.97;;;8.80;99.90;;;;;;4126959;28;20039;-60
2022/11/05 06:43:36;;;;;;;10.60;7.38;;;8.70;99.90;;;;;;4125170;28;20118;-61
2022/11/05 06:45:37;;;;;;;11.20;7.68;;;8.70;99.90;;;;;;4125907;28;20042;-61
2022/11/05 06:47:37;;;;;;;11.93;8.35;;;8.70;99.90;;;;;;4126433;28;20119;-60
2022/11/05 06:49:38;;;;;;;11.02;7.15;;;8.70;99.90;;;;;;4127432;28;20137;-63
2022/11/05 06:51:38;;;;;;;15.35;8.38;;;8.70;99.90;;;;;;4125145;28;20034;-62
2022/11/05 06:53:39;;;;;;;13.20;8.65;;;8.70;99.90;;;;;;4123332;28;20039;-62
2022/11/05 06:55:40;;;;;;;15.07;8.25;;;8.70;99.90;;;;;;4124424;28;20026;-62
2022/11/05 06:57:40;;;;;;;11.02;7.97;;;8.70;99.90;;;;;;4125224;28;20647;-62
2022/11/05 06:59:41;;;;;;;11.73;7.93;;;8.70;99.90;;;;;;4125316;28;20027;-62
2022/11/05 07:01:41;;;;;;;12.05;8.10;;;8.70;99.90;;;;;;4126119;28;20026;-62
2022/11/05 07:03:43;;;;;;;14.10;9.00;;;8.70;99.90;;;;;;4127579;28;20481;-62
2022/11/05 07:05:47;;;;;;;14.95;9.60;;;8.70;99.90;;;;;;4127790;28;20464;-62
2022/11/05 07:07:48;;;;;;;13.55;8.88;;;8.70;99.90;;;;;;4125845;28;20084;-62
2022/11/05 07:09:51;;;;;;;13.63;8.30;;;8.70;99.90;;;;;;4125699;28;20485;-62
2022/11/05 07:11:51;;;;;;;;;;;8.70;99.90;;;;;;4125687;28;20169;-62
2022/11/05 07:13:52;;;;;;;14.30;8.85;;;8.70;99.90;;;;;;4125117;28;20361;-62
2022/11/05 07:15:53;;;;;;;17.05;8.82;;;8.70;99.90;;;;;;4123648;28;20062;-62
2022/11/05 07:18:00;;;;;;;12.32;8.10;;;8.60;99.90;;;;;;4126230;28;20030;-62
2022/11/05 07:20:00;;;;;;;10.80;8.15;;;8.70;99.90;;;;;;4126495;28;20031;-62
2022/11/05 07:22:01;;;;;;;14.30;9.23;;;8.70;99.90;;;;;;4125600;28;20039;-62
2022/11/05 07:24:01;;;;;;;14.98;9.70;;;8.70;99.90;;;;;;4123188;28;20464;-62
2022/11/05 07:26:02;;;;;;;14.23;9.63;;;8.70;99.90;;;;;;4139111;28;20409;-62
2022/11/05 07:28:03;;;;;;;17.42;9.63;;;8.70;99.90;;;;;;4127833;28;20046;-62
2022/11/05 07:30:09;;;;;;;18.65;10.20;;;8.70;99.90;;;;;;4126658;28;20026;-63
2022/11/05 07:32:09;;;;;;;16.52;10.40;;;8.70;99.90;;;;;;4125762;28;20034;-62
2022/11/05 07:34:10;;;;;;;13.80;9.10;;;8.70;99.90;;;;;;4126355;28;20057;-62
2022/11/05 07:36:11;;;;;;;18.23;10.02;;;8.70;99.90;;;;;;4127603;28;20088;-62
2022/11/05 07:38:11;;;;;;;15.68;9.70;;;8.70;99.90;;;;;;4127178;28;20121;-62
2022/11/05 07:40:13;;;;;;;13.10;8.75;;;8.70;99.90;;;;;;4126554;28;20035;-63
2022/11/05 07:42:14;;;;;;;13.27;9.25;;;8.70;99.90;;;;;;4127743;28;20034;-63
2022/11/05 07:44:16;;;;;;;13.90;9.13;;;8.80;99.90;;;;;;4126118;28;20164;-63
2022/11/05 07:46:16;;;;;;;14.18;10.15;;;8.80;99.90;;;;;;4124650;28;20069;-63
2022/11/05 07:48:17;;;;;;;16.02;9.00;;;8.90;99.90;;;;;;4127104;28;20522;-62
2022/11/05 07:50:20;;;;;;;14.23;9.30;;;9.00;99.90;;;;;;4125369;28;20038;-63
2022/11/05 07:52:20;;;;;;;11.32;7.88;;;9.20;99.90;;;;;;4127240;28;20054;-62
2022/11/05 07:54:25;;;;;;;11.75;8.23;;;9.40;99.90;;;;;;4127042;28;20047;-62
2022/11/05 07:56:25;;;;;;;14.55;8.50;;;9.60;99.90;;;;;;4123731;28;20038;-62
2022/11/05 07:58:26;;;;;;;12.10;8.20;;;9.90;99.90;;;;;;4126077;28;20031;-62
2022/11/05 08:00:27;;;;;;;12.48;8.15;;;10.20;99.90;;;;;;4124585;28;20053;-62
2022/11/05 08:02:28;;;;;;;12.35;8.57;;;10.40;99.90;;;;;;4122547;28;20081;-62
2022/11/05 08:04:29;;;;;;;10.73;8.43;;;10.70;99.90;;;;;;4126422;28;20042;-63
2022/11/05 08:06:30;;;;;;;11.20;7.80;;;10.90;99.90;;;;;;4126838;28;20022;-62
2022/11/05 08:08:31;;;;;;;11.55;7.20;;;11.10;99.90;;;;;;4127314;28;20038;-62
2022/11/05 08:10:32;;;;;;;11.50;7.28;;;11.30;99.90;;;;;;4123504;28;20030;-63
2022/11/05 08:12:33;;;;;;;9.55;6.20;;;11.50;99.90;;;;;;4127715;28;20129;-63
2022/11/05 08:14:34;;;;;;;9.50;5.45;;;11.80;99.90;;;;;;4125093;28;20054;-63
2022/11/05 08:16:34;;;;;;;10.48;6.07;;;12.00;99.90;;;;;;4128955;28;20512;-63
2022/11/05 08:18:35;;;;;;;8.48;5.38;;;12.20;99.90;;;;;;4129837;28;20050;-63
2022/11/05 08:20:37;;;;;;;11.57;6.15;;;12.40;99.90;;;;;;4128361;28;20169;-63
2022/11/05 08:22:44;;;;;;;7.63;5.30;;;12.60;99.90;;;;;;4127414;28;20057;-63
2022/11/05 08:24:44;;;;;;;10.15;6.00;;;12.90;99.90;;;;;;4129251;28;20445;-63
2022/11/05 08:26:45;;;;;;;10.45;5.65;;;13.10;99.90;;;;;;4128449;28;20034;-63
2022/11/05 08:28:45;;;;;;;10.02;4.93;;;13.20;99.90;;;;;;4128717;28;20092;-63
2022/11/05 08:30:54;;;;;;;7.15;4.45;;;13.40;99.90;;;;;;4125734;28;20133;-63
2022/11/05 08:32:57;;;;;;;6.45;4.45;;;13.70;99.90;;;;;;4130428;28;20038;-63
2022/11/05 08:34:57;;;;;;;;;;;13.80;99.90;;;;;;4126224;28;20038;-62
2022/11/05 08:37:00;;;;;;;7.15;4.50;;;13.90;99.90;;;;;;4130296;28;19917;-62
2022/11/05 08:39:01;;;;;;;7.20;4.07;;;14.10;99.90;;;;;;4127911;28;20073;-62
2022/11/05 08:41:01;;;;;;;8.23;3.90;;;14.40;99.90;;;;;;4125622;28;20034;-62
2022/11/05 08:43:04;;;;;;;6.32;4.13;;;14.60;99.90;;;;;;4129572;28;20493;-62
2022/11/05 08:45:05;;;;;;;11.07;5.18;;;14.70;99.90;;;;;;4129715;28;20997;-63
2022/11/05 08:47:05;;;;;;;7.63;4.40;;;14.90;99.90;;;;;;4129638;28;20035;-63
2022/11/05 08:49:06;;;;;;;6.95;4.15;;;15.00;99.90;;;;;;4127203;28;20134;-62
2022/11/05 08:51:06;;;;;;;5.55;3.70;;;15.20;99.90;;;;;;4128420;28;20031;-65
2022/11/05 08:53:08;;;;;;;7.03;4.13;;;15.40;99.90;;;;;;4128589;28;20034;-64
2022/11/05 08:55:09;;;;;;;6.68;3.70;;;15.50;99.90;;;;;;4126524;28;20073;-63
2022/11/05 08:57:10;;;;;;;8.30;3.83;;;15.60;99.90;;;;;;4125214;28;20034;-63
2022/11/05 08:59:10;;;;;;;5.78;3.30;;;15.60;99.90;;;;;;4125259;28;20371;-63
2022/11/05 09:01:11;;;;;;;7.10;3.83;;;15.70;99.90;;;;;;4125986;28;20050;-63
2022/11/05 09:03:11;;;;;;;6.20;3.65;;;15.60;99.90;;;;;;4125433;28;20030;-63
2022/11/05 09:05:12;;;;;;;6.10;3.30;;;15.50;99.90;;;;;;4121374;28;20027;-64
2022/11/05 09:07:12;;;;;;;5.68;3.38;;;15.60;99.90;;;;;;4130255;28;20022;-63
2022/11/05 09:09:13;;;;;;;7.07;3.88;;;15.50;99.90;;;;;;4126353;28;20038;-67
2022/11/05 09:11:14;;;;;;;7.28;3.35;;;15.50;99.90;;;;;;4127806;28;20038;-64
2022/11/05 09:13:15;;;;;;;8.10;3.78;;;15.40;99.90;;;;;;4129327;28;20031;-63
2022/11/05 09:15:15;;;;;;;7.15;3.38;;;15.20;99.90;;;;;;4127756;28;20433;-63
2022/11/05 09:17:18;;;;;;;8.68;3.80;;;15.20;99.90;;;;;;4130248;28;20066;-64
2022/11/05 09:19:18;;;;;;;6.25;3.38;;;15.10;99.90;;;;;;4127356;28;20042;-63
2022/11/05 09:21:19;;;;;;;15.88;4.45;;;15.00;99.90;;;;;;4126929;28;20142;-63
2022/11/05 09:23:20;;;;;;;8.18;3.97;;;14.80;99.90;;;;;;4129538;28;20035;-63
2022/11/05 09:25:20;;;;;;;6.60;3.75;;;14.70;99.90;;;;;;4127685;28;20045;-63
2022/11/05 09:27:21;;;;;;;7.80;3.63;;;14.60;99.90;;;;;;4129292;28;20030;-63
2022/11/05 09:29:21;;;;;;;6.28;3.30;;;14.50;99.90;;;;;;4127437;28;20038;-63
2022/11/05 09:31:22;;;;;;;6.28;3.80;;;14.50;99.90;;;;;;4124246;28;20394;-63
2022/11/05 09:33:25;;;;;;;4.45;3.38;;;14.40;99.90;;;;;;4127610;28;20148;-63
2022/11/05 09:35:25;;;;;;;6.20;3.45;;;14.40;99.90;;;;;;4127364;28;20112;-63
2022/11/05 09:37:27;;;;;;;5.22;3.80;;;14.30;99.90;;;;;;4128690;28;20497;-63
2022/11/05 09:39:27;;;;;;;6.18;3.22;;;14.30;99.90;;;;;;4128433;28;20031;-63
2022/11/05 09:41:35;;;;;;;6.15;3.47;;;14.20;99.90;;;;;;4127366;28;20401;-63
2022/11/05 09:43:50;;;;;;;9.77;3.20;;;14.20;99.90;;;;;;4124460;28;20042;-63
2022/11/05 09:45:56;;;;;;;6.05;3.40;;;14.00;99.90;;;;;;4126333;28;20113;-63
2022/11/05 09:48:07;;;;;;;5.75;3.40;;;14.00;99.90;;;;;;4127494;28;20129;-63
2022/11/05 09:50:16;;;;;;;5.07;3.30;;;14.00;99.90;;;;;;4126356;28;20512;-64
2022/11/05 09:52:26;;;;;;;4.45;2.90;;;13.90;99.90;;;;;;4123669;28;20046;-64
2022/11/05 09:54:30;;;;;;;6.35;3.20;;;14.00;99.90;;;;;;4129308;28;20138;-63
2022/11/05 09:56:35;;;;;;;8.10;3.70;;;14.00;99.90;;;;;;4128754;28;20034;-63
2022/11/05 09:59:03;;;;;;;4.43;2.97;;;13.90;99.90;;;;;;4128498;28;20088;-63
2022/11/05 10:01:09;;;;;;;5.57;2.92;;;14.00;99.90;;;;;;4124525;28;20050;-63
2022/11/05 10:03:14;;;;;;;6.63;3.13;;;14.00;99.90;;;;;;4126610;28;20039;-64
2022/11/05 10:05:17;;;;;;;6.95;3.47;;;14.00;99.90;;;;;;4127461;28;20023;-63
2022/11/05 10:07:22;;;;;;;4.85;3.00;;;14.10;99.90;;;;;;4128950;28;20037;-64
2022/11/05 10:09:28;;;;;;;10.13;3.72;;;14.10;99.90;;;;;;4127837;28;20481;-64
2022/11/05 10:11:46;;;;;;;6.53;3.63;;;14.00;99.90;;;;;;4126070;28;20042;-63
2022/11/05 10:13:57;;;;;;;6.85;3.25;;;14.00;99.90;;;;;;4127478;28;20575;-64
2022/11/05 10:16:02;;;;;;;6.32;3.58;;;14.00;99.90;;;;;;4124672;28;20509;-63
2022/11/05 10:18:17;;;;;;;10.07;4.15;;;14.00;99.90;;;;;;4128745;28;20033;-64
2022/11/05 10:20:31;;;;;;;7.50;3.97;;;14.00;99.90;;;;;;4123970;28;20054;-63
2022/11/05 10:22:32;;;;;;;10.60;4.63;;;13.90;99.90;;;;;;4126025;28;20038;-64
2022/11/05 10:24:32;;;;;;;7.40;3.83;;;13.90;99.90;;;;;;4120879;28;20035;-63
2022/11/05 10:26:33;;;;;;;5.85;3.45;;;13.90;99.90;;;;;;4123903;28;20042;-63
2022/11/05 10:28:35;;;;;;;6.05;3.40;;;13.90;99.90;;;;;;4123088;28;20092;-63
2022/11/05 10:30:36;;;;;;;8.18;4.00;;;13.90;99.90;;;;;;4125224;28;20034;-63
2022/11/05 10:32:39;;;;;;;6.13;3.72;;;13.80;99.90;;;;;;4127062;28;20053;-63
2022/11/05 10:34:41;;;;;;;7.88;3.92;;;13.80;99.90;;;;;;4127070;28;20409;-63
2022/11/05 10:36:42;;;;;;;6.22;3.58;;;13.80;99.90;;;;;;4127216;28;20505;-64
2022/11/05 10:38:43;;;;;;;7.05;3.92;;;13.80;99.90;;;;;;4127470;28;20061;-64
2022/11/05 10:40:58;;;;;;;9.40;3.63;;;13.70;99.90;;;;;;4126576;28;20429;-68
2022/11/05 10:43:08;;;;;;;7.45;3.75;;;13.80;99.90;;;;;;4126309;28;20030;-63
2022/11/05 10:45:29;;;;;;;8.90;4.38;;;13.80;99.90;;;;;;4125723;28;20125;-65
2022/11/05 10:47:30;;;;;;;9.57;3.75;;;13.70;99.90;;;;;;4122335;28;20046;-63
2022/11/05 10:49:48;;;;;;;8.90;4.28;;;13.60;99.90;;;;;;4141764;28;20033;-63
2022/11/05 10:51:56;;;;;;;8.57;3.97;;;13.60;99.90;;;;;;4125165;28;20168;-64
2022/11/05 10:54:02;;;;;;;8.45;3.70;;;13.60;99.90;;;;;;4128727;28;20026;-64
2022/11/05 10:56:03;;;;;;;7.10;3.97;;;13.60;99.90;;;;;;4126140;28;20030;-63
2022/11/05 10:58:16;;;;;;;8.80;4.32;;;13.60;99.90;;;;;;4125427;28;20527;-64
2022/11/05 11:00:24;;;;;;;8.48;4.15;;;13.70;99.90;;;;;;4123585;28;20038;-63
2022/11/05 11:02:25;;;;;;;10.82;4.68;;;13.70;99.90;;;;;;4127810;28;20054;-63
2022/11/05 11:04:29;;;;;;;8.27;4.82;;;13.60;99.90;;;;;;4126788;28;20459;-64
2022/11/05 11:06:36;;;;;;;7.75;3.92;;;13.60;99.90;;;;;;4126509;28;20039;-64
2022/11/05 11:08:37;;;;;;;9.57;4.18;;;13.60;99.90;;;;;;4125878;28;20034;-63
2022/11/05 11:10:53;;;;;;;7.05;4.03;;;13.70;99.90;;;;;;4126964;28;20027;-63
2022/11/05 11:12:55;;;;;;;6.65;4.00;;;13.60;99.90;;;;;;4125422;28;20074;-63
2022/11/05 11:15:11;;;;;;;7.75;3.47;;;13.70;99.90;;;;;;4128358;28;20097;-64
2022/11/05 11:17:31;;;;;;;11.52;4.88;;;13.60;99.90;;;;;;4127666;28;20042;-64
2022/11/05 11:19:33;;;;;;;9.98;4.95;;;13.60;99.90;;;;;;4121201;28;20585;-64
2022/11/05 11:21:36;;;;;;;8.27;4.60;;;13.60;99.90;;;;;;4127043;28;20096;-64
2022/11/05 11:23:38;;;;;;;;;;;13.50;99.90;;;;;;4126501;28;20096;-64
2022/11/05 11:25:59;;;;;;;8.35;4.55;;;13.50;99.90;;;;;;4126053;28;19914;-64
2022/11/05 11:28:03;;;;;;;9.50;4.40;;;13.40;99.90;;;;;;4127297;28;20108;-64